Time;durP1;ratioP1;P1;durP2;ratioP2;P2;SDS_P1;SDS_P2;PMS_P1;PMS_P2;Temp;Humidity;BMP_temperature;BMP_pressure;BME280_temperature;BME280_humidity;BME280_pressure;Samples;Min_cycle;Max_cycle;Signal;HPM_P1;HPM_P2
2022/07/28 00:02:15;;;;;;;7.15;3.00;;;;;;;13.25;90.81;99885.09;4841155;29;20041;-75
2022/07/28 00:04:41;;;;;;;3.10;1.90;;;;;;;13.25;91.09;99887.72;4841107;29;20117;-76
2022/07/28 00:07:06;;;;;;;6.80;2.45;;;;;;;13.13;91.48;99881.31;4841138;29;20349;-76
2022/07/28 00:09:32;;;;;;;4.00;1.90;;;;;;;13.12;91.55;99885.72;4841039;29;20105;-76
2022/07/28 00:11:57;;;;;;;7.07;2.70;;;;;;;13.05;91.25;99875.66;4841173;29;20117;-76
2022/07/28 00:14:23;;;;;;;7.40;2.70;;;;;;;12.99;91.41;99872.44;4840882;29;20033;-76
2022/07/28 00:16:49;;;;;;;3.88;2.20;;;;;;;12.98;91.52;99883.00;4841013;29;20034;-75
2022/07/28 00:19:15;;;;;;;3.38;1.90;;;;;;;12.93;91.59;99877.97;4841234;29;20038;-75
2022/07/28 00:21:40;;;;;;;4.55;2.38;;;;;;;12.95;91.60;99888.38;4840964;29;20535;-76
2022/07/28 00:24:06;;;;;;;3.35;2.03;;;;;;;12.93;91.72;99885.00;4840981;29;20490;-75
2022/07/28 00:26:31;;;;;;;8.20;1.92;;;;;;;12.88;91.86;99880.00;4840828;29;20048;-75
2022/07/28 00:28:57;;;;;;;4.85;2.30;;;;;;;12.87;92.29;99883.56;4841019;29;20026;-75
2022/07/28 00:31:22;;;;;;;2.92;2.28;;;;;;;12.82;92.59;99882.94;4840864;29;20530;-75
2022/07/28 00:33:47;;;;;;;3.30;1.92;;;;;;;12.70;93.02;99870.53;4840912;29;20022;-75
2022/07/28 00:36:13;;;;;;;6.85;2.60;;;;;;;12.78;92.90;99884.03;4841000;29;20041;-75
2022/07/28 00:38:39;;;;;;;4.82;2.30;;;;;;;12.70;93.60;99876.59;4840728;29;20032;-75
2022/07/28 00:41:10;;;;;;;4.43;2.40;;;;;;;12.65;93.98;99870.75;4840909;29;20064;-75
2022/07/28 00:43:44;;;;;;;3.42;1.92;;;;;;;12.65;94.28;99870.75;4840525;29;20032;-76
2022/07/28 00:46:11;;;;;;;6.60;2.40;;;;;;;12.66;94.40;99872.44;4840906;29;20085;-75
2022/07/28 00:48:43;;;;;;;3.17;2.03;;;;;;;12.62;94.35;99881.34;4840519;29;20478;-75
2022/07/28 00:51:09;;;;;;;5.28;2.30;;;;;;;12.58;94.54;99877.22;4840846;29;20113;-75
2022/07/28 00:53:36;;;;;;;4.32;2.15;;;;;;;12.56;95.33;99880.84;4840614;29;20352;-75
2022/07/28 00:56:02;;;;;;;4.72;2.10;;;;;;;12.52;96.01;99871.47;4840692;29;20087;-75
2022/07/28 00:58:28;;;;;;;2.13;1.90;;;;;;;12.48;95.95;99870.78;4840892;29;20382;-75
2022/07/28 01:00:54;;;;;;;4.03;2.03;;;;;;;12.40;96.68;99863.31;4840784;29;20030;-76
2022/07/28 01:03:20;;;;;;;4.05;2.20;;;;;;;12.43;96.08;99876.25;4840629;29;20141;-76
2022/07/28 01:05:57;;;;;;;4.35;2.30;;;;;;;12.35;95.25;99864.50;4840464;29;20046;-76
2022/07/28 01:09:13;;;;;;;4.07;2.13;;;;;;;12.30;95.17;99863.84;4840649;29;20030;-76
2022/07/28 01:12:10;;;;;;;6.70;2.42;;;;;;;12.33;95.93;99876.75;4783748;29;20047;-76
2022/07/28 01:14:43;;;;;;;3.63;2.33;;;;;;;12.30;97.07;99885.59;4786944;29;20455;-76
2022/07/28 01:17:37;;;;;;;4.40;2.03;;;;;;;12.27;98.28;99883.16;4787191;30;20118;-75
2022/07/28 01:20:21;;;;;;;5.13;2.40;;;;;;;12.16;98.68;99873.22;4787239;30;20527;-75
2022/07/28 01:23:11;;;;;;;3.95;2.28;;;;;;;12.18;98.86;99887.06;4786804;30;20795;-75
2022/07/28 01:25:57;;;;;;;5.25;2.13;;;;;;;12.10;99.48;99889.22;4786776;30;20035;-75
2022/07/28 01:28:44;;;;;;;5.28;2.25;;;;;;;12.04;100.00;99892.09;4787006;30;20123;-76
2022/07/28 01:31:13;;;;;;;2.97;2.15;;;;;;;11.94;100.00;99889.09;4786991;30;20086;-75
2022/07/28 01:33:49;;;;;;;3.17;2.10;;;;;;;11.90;100.00;99895.38;4786652;30;20031;-76
2022/07/28 01:36:23;;;;;;;4.85;2.33;;;;;;;11.86;100.00;99893.84;4786751;30;20055;-75
2022/07/28 01:38:49;;;;;;;3.13;1.98;;;;;;;11.72;100.00;99881.44;4786825;30;20082;-75
2022/07/28 01:41:18;;;;;;;3.22;2.63;;;;;;;11.73;100.00;99890.09;4786741;30;20585;-75
2022/07/28 01:43:50;;;;;;;3.83;2.42;;;;;;;11.73;100.00;99890.94;4786440;30;20122;-75
2022/07/28 01:46:19;;;;;;;3.05;2.38;;;;;;;11.67;100.00;99886.03;4786505;30;20111;-75
2022/07/28 01:48:46;;;;;;;3.70;2.25;;;;;;;11.64;100.00;99899.22;4830644;29;20049;-75
2022/07/28 01:51:13;;;;;;;4.00;2.33;;;;;;;11.61;100.00;99904.56;4843396;29;20033;-75
2022/07/28 01:53:39;;;;;;;3.50;2.92;;;;;;;11.52;100.00;99885.91;4843373;29;20116;-76
2022/07/28 01:56:06;;;;;;;3.50;2.40;;;;;;;11.52;100.00;99896.31;4843280;29;20033;-75
2022/07/28 01:58:34;;;;;;;4.35;2.30;;;;;;;11.52;100.00;99901.53;4843004;29;20033;-75
2022/07/28 02:01:02;;;;;;;5.93;2.67;;;;;;;11.41;100.00;99896.81;4843080;29;20388;-75
2022/07/28 02:03:29;;;;;;;4.40;2.13;;;;;;;11.32;100.00;99881.59;4842945;29;20118;-76
2022/07/28 02:05:56;;;;;;;4.03;2.40;;;;;;;11.41;100.00;99904.63;4843172;29;20038;-75
2022/07/28 02:08:23;;;;;;;4.57;2.60;;;;;;;11.39;100.00;99898.66;4843128;29;20441;-75
2022/07/28 02:13:38;;;;;;;4.38;2.15;;;;;;;11.26;100.00;99889.72;4842681;29;20098;-76
2022/07/28 02:16:07;;;;;;;3.50;2.08;;;;;;;11.26;100.00;99895.78;4842754;29;20475;-75
2022/07/28 02:18:35;;;;;;;4.82;2.58;;;;;;;11.24;100.00;99885.38;4842788;29;20022;-75
2022/07/28 02:21:02;;;;;;;4.13;2.60;;;;;;;11.21;100.00;99882.09;4843142;29;20026;-75
2022/07/28 02:23:28;;;;;;;6.20;2.83;;;;;;;11.32;100.00;99897.25;4842788;29;20033;-76
2022/07/28 02:25:54;;;;;;;8.48;3.20;;;;;;;11.34;100.00;99905.84;4842320;29;20117;-75
2022/07/28 02:28:22;;;;;;;6.18;2.40;;;;;;;11.33;100.00;99899.75;4842935;29;20102;-75
2022/07/28 02:31:03;;;;;;;2.58;2.20;;;;;;;11.32;100.00;99902.44;4842651;29;20026;-75
2022/07/28 02:33:33;;;;;;;2.83;2.17;;;;;;;11.22;100.00;99902.03;4842864;29;20056;-75
2022/07/28 02:36:04;;;;;;;4.60;2.75;;;;;;;11.24;100.00;99906.25;4842705;29;20072;-75
2022/07/28 02:38:34;;;;;;;3.28;2.25;;;;;;;11.20;100.00;99906.47;4842479;29;20038;-75
2022/07/28 02:41:07;;;;;;;4.07;2.33;;;;;;;11.09;100.00;99896.53;4842426;29;20506;-75
2022/07/28 02:43:34;;;;;;;3.30;2.08;;;;;;;11.13;100.00;99915.50;4842294;29;20034;-75
2022/07/28 02:46:05;;;;;;;3.00;2.20;;;;;;;11.08;100.00;99920.03;4842367;29;20121;-75
2022/07/28 02:48:32;;;;;;;;;;;;;;;11.03;100.00;99919.41;4842751;29;20085;-75
2022/07/28 02:51:00;;;;;;;4.43;2.20;;;;;;;10.91;100.00;99913.84;4842211;29;20361;-74
2022/07/28 02:53:27;;;;;;;3.30;1.95;;;;;;;10.91;100.00;99915.56;4842400;29;20497;-75
2022/07/28 02:55:53;;;;;;;7.20;2.80;;;;;;;10.89;100.00;99906.97;4842080;29;20081;-75
2022/07/28 02:58:24;;;;;;;4.15;2.15;;;;;;;10.87;100.00;99920.09;4842220;29;20049;-75
2022/07/28 03:00:51;;;;;;;3.00;2.20;;;;;;;10.91;100.00;99932.06;4841947;29;20034;-75
2022/07/28 03:03:17;;;;;;;4.05;2.08;;;;;;;10.91;100.00;99932.06;4842003;29;20161;-75
2022/07/28 03:05:43;;;;;;;4.78;2.40;;;;;;;10.92;100.00;99936.38;4842001;29;20037;-75
2022/07/28 03:08:09;;;;;;;2.78;2.17;;;;;;;10.86;100.00;99931.41;4842448;29;20037;-75
2022/07/28 03:10:34;;;;;;;6.28;2.80;;;;;;;10.84;100.00;99928.03;4841906;29;20406;-75
2022/07/28 03:13:01;;;;;;;5.93;3.00;;;;;;;10.83;100.00;99935.91;4841875;29;20038;-75
2022/07/28 03:15:27;;;;;;;5.68;3.22;;;;;;;10.91;100.00;99950.31;4841885;29;20090;-75
2022/07/28 03:17:52;;;;;;;9.23;3.30;;;;;;;10.87;100.00;99945.28;4841558;29;20046;-75
2022/07/28 03:20:17;;;;;;;7.68;3.08;;;;;;;10.87;100.00;99946.16;4841943;29;20026;-75
2022/07/28 03:22:43;;;;;;;4.13;2.90;;;;;;;10.88;100.00;99952.19;4841693;29;20112;-75
2022/07/28 03:25:17;;;;;;;6.65;3.20;;;;;;;10.90;100.00;99960.78;4841712;29;20266;-75
2022/07/28 03:27:47;;;;;;;5.95;2.78;;;;;;;10.86;100.00;99961.81;4841436;29;20129;-75
2022/07/28 03:30:15;;;;;;;4.70;2.67;;;;;;;10.88;100.00;99965.22;4841650;29;20062;-75
2022/07/28 03:32:54;;;;;;;5.03;2.83;;;;;;;10.80;100.00;99960.34;4841269;29;20101;-75
2022/07/28 03:35:19;;;;;;;7.75;2.58;;;;;;;10.80;100.00;99962.94;4841164;29;20049;-75
2022/07/28 03:37:54;;;;;;;8.73;3.22;;;;;;;10.83;100.00;99975.84;4841326;29;20038;-75
2022/07/28 03:40:21;;;;;;;5.88;3.05;;;;;;;10.83;100.00;99981.06;4841515;29;20049;-75
2022/07/28 03:42:48;;;;;;;3.72;2.55;;;;;;;10.78;100.00;99958.69;4841205;29;20067;-75
2022/07/28 03:45:14;;;;;;;5.20;3.13;;;;;;;10.79;100.00;99960.38;4841668;29;20120;-75
2022/07/28 03:47:57;;;;;;;4.93;2.50;;;;;;;10.87;100.00;99964.38;4841430;29;20042;-75
2022/07/28 03:50:30;;;;;;;9.55;3.10;;;;;;;10.85;100.00;99968.81;4841502;29;20033;-75
2022/07/28 03:52:57;;;;;;;6.57;3.00;;;;;;;10.96;100.00;99981.38;4841373;29;20042;-75
2022/07/28 03:55:23;;;;;;;6.57;2.90;;;;;;;11.01;100.00;99976.81;4841292;29;20030;-75
2022/07/28 03:57:49;;;;;;;4.72;3.05;;;;;;;11.10;100.00;99978.19;4841296;29;20038;-75
2022/07/28 04:00:16;;;;;;;4.88;3.03;;;;;;;11.19;100.00;99976.00;4841392;29;20034;-75
2022/07/28 04:02:43;;;;;;;4.43;2.90;;;;;;;11.32;100.00;99975.47;4840908;29;20108;-75
2022/07/28 04:05:13;;;;;;;3.28;2.28;;;;;;;11.40;100.00;99962.94;4841103;29;20060;-75
2022/07/28 04:07:39;;;;;;;;;;;;;;;11.67;100.00;99968.66;4841421;29;20098;-75
2022/07/28 04:10:07;;;;;;;6.68;2.50;;;;;;;11.78;100.00;99957.72;4841084;29;19916;-75
2022/07/28 04:12:46;;;;;;;3.10;2.33;;;;;;;12.07;100.00;99956.38;4841429;29;20053;-75
2022/07/28 04:15:13;;;;;;;4.28;2.60;;;;;;;12.73;100.00;99972.28;4841020;29;20030;-74
2022/07/28 04:17:39;;;;;;;5.75;2.78;;;;;;;13.66;98.80;99971.84;4841207;29;20391;-75
2022/07/28 04:20:05;;;;;;;4.20;2.42;;;;;;;14.31;94.44;99963.84;4841042;29;20106;-75
2022/07/28 04:22:30;;;;;;;4.20;2.30;;;;;;;14.97;90.71;99960.88;4840875;29;20151;-76
2022/07/28 04:24:56;;;;;;;5.95;2.58;;;;;;;15.55;86.28;99961.72;4840906;29;20149;-75
2022/07/28 04:27:21;;;;;;;5.70;2.80;;;;;;;15.96;83.22;99961.78;4841385;29;20030;-75
2022/07/28 04:29:46;;;;;;;6.32;2.47;;;;;;;16.07;82.39;99967.19;4840814;29;20030;-76
2022/07/28 04:32:12;;;;;;;4.82;2.67;;;;;;;16.82;81.17;99964.06;4841003;29;20034;-76
2022/07/28 04:34:37;;;;;;;3.80;2.55;;;;;;;18.12;75.77;99968.16;4841085;29;20037;-76
2022/07/28 04:37:03;;;;;;;6.47;2.13;;;;;;;19.20;70.00;99973.16;4840786;29;20378;-76
2022/07/28 04:39:28;;;;;;;5.05;2.40;;;;;;;19.54;67.37;99959.13;4840854;29;20038;-75
2022/07/28 04:41:54;;;;;;;5.03;2.22;;;;;;;19.23;66.87;99969.47;4840786;29;20033;-75
2022/07/28 04:44:19;;;;;;;4.38;2.20;;;;;;;19.08;66.98;99983.84;4840853;29;20037;-75
2022/07/28 04:46:44;;;;;;;3.22;2.10;;;;;;;19.14;65.51;99967.53;4841893;29;20034;-76
2022/07/28 04:49:10;;;;;;;4.03;2.10;;;;;;;19.54;64.06;99977.63;4844533;29;20494;-78
2022/07/28 04:51:35;;;;;;;8.55;3.08;;;;;;;19.69;63.36;99971.19;4844338;29;20030;-79
2022/07/28 04:54:00;;;;;;;14.23;5.78;;;;;;;20.05;62.82;99958.59;4827441;29;20037;-78
2022/07/28 04:56:26;;;;;;;13.73;5.00;;;;;;;21.14;60.83;99968.94;4844545;29;20082;-78
2022/07/28 04:58:51;;;;;;;9.68;3.83;;;;;;;22.44;57.73;99964.59;4844230;29;20074;-78
2022/07/28 05:01:17;;;;;;;9.00;3.53;;;;;;;23.35;54.92;99974.66;4844711;29;20057;-78
2022/07/28 05:03:42;;;;;;;24.98;7.95;;;;;;;23.32;52.97;99964.31;4844035;29;20054;-79
2022/07/28 05:06:08;;;;;;;15.75;5.15;;;;;;;22.96;54.19;99959.81;4844222;29;20475;-76
2022/07/28 05:08:33;;;;;;;5.38;2.63;;;;;;;22.68;52.53;99965.00;4844172;29;20463;-76
2022/07/28 05:10:59;;;;;;;10.20;3.30;;;;;;;22.50;53.01;99959.59;4843945;29;20149;-76
2022/07/28 05:13:24;;;;;;;7.55;2.97;;;;;;;22.42;53.91;99957.63;4844296;29;20034;-76
2022/07/28 05:15:50;;;;;;;5.05;2.40;;;;;;;22.72;54.04;99965.56;4843679;29;20088;-76
2022/07/28 05:18:15;;;;;;;4.45;2.50;;;;;;;23.79;52.54;99964.28;4844134;29;20058;-76
2022/07/28 05:20:40;;;;;;;3.33;2.05;;;;;;;25.68;46.09;99962.09;4843825;29;20026;-77
2022/07/28 05:23:07;;;;;;;6.28;2.53;;;;;;;27.06;41.35;99963.28;4843716;29;20026;-77
2022/07/28 05:25:33;;;;;;;3.22;2.13;;;;;;;26.79;40.65;99957.31;4844015;29;20030;-77
2022/07/28 05:27:58;;;;;;;4.45;1.83;;;;;;;26.04;41.98;99965.44;4843795;29;20041;-76
2022/07/28 05:30:24;;;;;;;2.78;1.75;;;;;;;25.38;43.61;99972.31;4843902;29;20041;-76
2022/07/28 05:32:49;;;;;;;4.32;2.00;;;;;;;25.08;42.63;99976.31;4843608;29;20030;-76
2022/07/28 05:35:15;;;;;;;3.00;1.80;;;;;;;24.96;43.11;99971.38;4843684;29;20034;-76
2022/07/28 05:37:42;;;;;;;4.22;1.85;;;;;;;25.08;44.15;99970.97;4843585;29;20034;-77
2022/07/28 05:40:12;;;;;;;5.22;2.10;;;;;;;26.53;41.05;99981.53;4843864;29;20034;-76
2022/07/28 05:42:39;;;;;;;4.22;1.73;;;;;;;28.21;38.92;99977.91;4843871;29;20486;-76
2022/07/28 05:45:07;;;;;;;3.78;2.13;;;;;;;28.77;37.11;99981.19;4843249;29;20522;-76
2022/07/28 05:47:47;;;;;;;2.25;1.67;;;;;;;27.83;38.40;99988.50;4843639;29;20025;-76
2022/07/28 05:50:14;;;;;;;4.65;1.63;;;;;;;27.06;39.83;99988.19;4843785;29;20037;-76
2022/07/28 05:52:40;;;;;;;4.18;1.50;;;;;;;26.59;40.10;99996.06;4843599;29;20045;-76
2022/07/28 05:55:07;;;;;;;2.35;1.70;;;;;;;26.39;40.65;99987.50;4843388;29;20037;-76
2022/07/28 05:57:32;;;;;;;5.15;2.17;;;;;;;26.49;41.09;99990.03;4843323;29;20041;-76
2022/07/28 05:59:57;;;;;;;5.22;2.08;;;;;;;26.73;40.23;99997.25;4842803;29;20026;-77
2022/07/28 06:02:23;;;;;;;3.22;2.03;;;;;;;26.85;40.07;99985.22;4843307;29;20037;-77
2022/07/28 06:04:48;;;;;;;3.25;1.83;;;;;;;26.76;40.64;100003.09;4843229;29;20061;-76
2022/07/28 06:07:13;;;;;;;2.55;1.80;;;;;;;26.38;41.55;100005.38;4843393;29;20075;-76
2022/07/28 06:09:39;;;;;;;4.50;1.90;;;;;;;26.35;41.77;100012.88;4843248;29;20041;-76
2022/07/28 06:12:05;;;;;;;3.75;1.88;;;;;;;26.30;41.34;100009.88;4842910;29;20113;-77
2022/07/28 06:14:30;;;;;;;4.55;1.90;;;;;;;26.27;41.61;100013.69;4843109;29;20037;-76
2022/07/28 06:16:55;;;;;;;3.63;2.35;;;;;;;26.24;39.71;100003.31;4842981;29;20026;-76
2022/07/28 06:19:21;;;;;;;2.40;2.08;;;;;;;26.15;40.18;100012.31;4843097;29;20467;-76
2022/07/28 06:21:46;;;;;;;4.35;2.03;;;;;;;26.42;39.59;100008.56;4843012;29;20092;-76
2022/07/28 06:24:12;;;;;;;6.30;2.20;;;;;;;26.50;38.59;100010.41;4843168;29;20146;-76
2022/07/28 06:26:38;;;;;;;3.40;2.30;;;;;;;26.64;37.60;100007.09;4842942;29;20506;-76
2022/07/28 06:29:04;;;;;;;4.55;2.00;;;;;;;26.98;38.30;100004.25;4842726;29;20859;-76
2022/07/28 06:31:29;;;;;;;5.80;2.72;;;;;;;26.94;37.04;100004.75;4842764;29;20030;-76
2022/07/28 06:33:55;;;;;;;5.38;2.20;;;;;;;27.04;38.08;100011.56;4842531;29;20030;-76
2022/07/28 06:36:20;;;;;;;5.68;2.45;;;;;;;27.59;38.22;100020.66;4842921;29;20036;-77
2022/07/28 06:38:45;;;;;;;3.95;1.98;;;;;;;28.21;36.09;100012.72;4842545;29;20073;-76
2022/07/28 06:41:11;;;;;;;6.03;2.28;;;;;;;29.62;34.68;100017.56;4842724;29;20113;-76
2022/07/28 06:43:37;;;;;;;7.25;2.30;;;;;;;32.49;30.74;100019.69;4842676;29;20087;-76
2022/07/28 06:46:02;;;;;;;8.20;2.17;;;;;;;35.03;27.02;100015.97;4842326;29;20411;-76
2022/07/28 06:48:27;;;;;;;5.18;2.13;;;;;;;36.97;24.56;100011.38;4842454;29;20034;-76
2022/07/28 06:50:53;;;;;;;5.38;2.30;;;;;;;38.09;23.40;100005.63;4842404;29;20026;-76
2022/07/28 06:53:18;;;;;;;4.15;1.67;;;;;;;38.71;21.96;100012.19;4842647;29;20165;-77
2022/07/28 06:55:44;;;;;;;4.47;2.20;;;;;;;40.69;20.36;100015.81;4842452;29;20034;-74
2022/07/28 06:58:09;;;;;;;6.28;1.90;;;;;;;42.88;18.53;100016.66;4842163;29;20433;-77
2022/07/28 07:00:34;;;;;;;2.33;1.60;;;;;;;44.82;17.36;100021.19;4842305;29;20026;-76
2022/07/28 07:03:00;;;;;;;3.70;1.77;;;;;;;46.10;15.93;100005.94;4841752;29;20114;-77
2022/07/28 07:05:28;;;;;;;4.13;2.20;;;;;;;47.47;14.81;100003.53;4842344;29;20109;-74
2022/07/28 07:07:53;;;;;;;4.25;1.85;;;;;;;48.70;14.17;100001.47;4842045;29;20026;-77
2022/07/28 07:10:19;;;;;;;5.65;1.90;;;;;;;49.42;13.57;100014.16;4841315;29;20034;-74
2022/07/28 07:12:44;;;;;;;3.50;1.88;;;;;;;50.22;13.23;100008.44;4844120;29;20390;-74
2022/07/28 07:15:10;;;;;;;4.82;1.88;;;;;;;48.52;14.12;100007.22;4854642;29;20414;-74
2022/07/28 07:17:38;;;;;;;5.63;2.42;;;;;;;49.73;13.64;100013.28;4860393;29;20036;-74
2022/07/28 07:20:08;;;;;;;4.03;1.95;;;;;;;51.00;12.94;100004.69;4860312;29;20036;-75
2022/07/28 07:22:33;;;;;;;4.00;1.80;;;;;;;51.87;12.35;100010.53;4860239;29;20033;-77
2022/07/28 07:25:10;;;;;;;3.85;1.50;;;;;;;52.30;12.19;100009.34;4860141;29;20120;-75
2022/07/28 07:27:36;;;;;;;3.28;2.00;;;;;;;52.70;11.88;100006.81;4860332;29;20041;-75
2022/07/28 07:30:05;;;;;;;4.20;1.73;;;;;;;52.86;12.02;100012.53;4859940;29;20482;-77
2022/07/28 07:32:31;;;;;;;6.35;1.92;;;;;;;53.01;11.57;100002.69;4860441;29;20398;-77
2022/07/28 07:34:57;;;;;;;3.60;1.80;;;;;;;53.42;11.11;100015.56;4860085;29;20040;-77
2022/07/28 07:37:23;;;;;;;5.50;1.85;;;;;;;53.90;11.05;100013.84;4860137;29;20116;-75
2022/07/28 07:39:49;;;;;;;2.97;1.60;;;;;;;54.04;10.98;100014.28;4860012;29;20025;-75
2022/07/28 07:42:14;;;;;;;3.22;2.00;;;;;;;54.46;10.57;100010.25;4860094;29;20433;-75
2022/07/28 07:44:40;;;;;;;4.30;1.85;;;;;;;54.89;10.22;100012.22;4859980;29;20037;-75
2022/07/28 07:47:08;;;;;;;4.03;1.80;;;;;;;54.94;10.62;100011.13;4859961;29;20049;-75
2022/07/28 07:49:33;;;;;;;;;;;;;;;54.75;10.47;100003.47;4860599;29;20071;-75
2022/07/28 07:51:58;;;;;;;3.57;1.83;;;;;;;54.97;10.54;100007.63;4859708;29;19963;-75
2022/07/28 07:54:24;;;;;;;8.18;1.73;;;;;;;54.25;10.65;100013.28;4859976;29;20030;-75
2022/07/28 07:56:49;;;;;;;3.55;1.80;;;;;;;53.76;11.06;100003.09;4859917;29;20041;-75
2022/07/28 07:59:14;;;;;;;3.63;1.75;;;;;;;52.87;10.87;100003.81;4859429;29;20041;-76
2022/07/28 08:01:40;;;;;;;2.60;1.70;;;;;;;52.97;11.37;100001.75;4859560;29;20100;-75
2022/07/28 08:04:05;;;;;;;4.00;1.75;;;;;;;51.64;11.11;100002.53;4859212;29;20128;-75
2022/07/28 08:06:31;;;;;;;3.50;1.77;;;;;;;50.72;11.61;99990.41;4859736;29;20086;-75
2022/07/28 08:08:57;;;;;;;2.58;1.45;;;;;;;50.27;11.80;99974.19;4859545;29;20025;-75
2022/07/28 08:11:22;;;;;;;3.53;1.95;;;;;;;47.18;12.88;99972.66;4859752;29;20029;-74
2022/07/28 08:13:47;;;;;;;4.50;1.60;;;;;;;47.63;12.77;99976.41;4859515;29;20037;-75
2022/07/28 08:16:13;;;;;;;4.57;1.85;;;;;;;48.03;13.12;99982.16;4859484;29;20029;-75
2022/07/28 08:18:38;;;;;;;2.63;1.55;;;;;;;46.53;13.40;99976.34;4859764;29;20478;-75
2022/07/28 08:21:04;;;;;;;3.08;1.60;;;;;;;42.40;15.34;99966.81;4859750;29;20029;-75
2022/07/28 08:23:29;;;;;;;2.75;1.52;;;;;;;38.71;17.57;99966.72;4863489;29;20044;-77
2022/07/28 08:25:55;;;;;;;4.10;1.92;;;;;;;36.32;19.88;99957.06;4863095;29;20394;-76
2022/07/28 08:28:20;;;;;;;2.50;1.75;;;;;;;34.65;21.51;99966.28;4863238;29;20041;-76
2022/07/28 08:30:45;;;;;;;3.63;1.90;;;;;;;32.66;22.98;99976.97;4863535;29;20051;-75
2022/07/28 08:33:11;;;;;;;4.70;1.60;;;;;;;30.91;25.56;99967.50;4863074;29;20232;-75
2022/07/28 08:35:36;;;;;;;3.45;1.80;;;;;;;30.71;26.09;99967.31;4863348;29;20030;-77
2022/07/28 08:38:03;;;;;;;4.88;1.70;;;;;;;30.04;26.28;99967.69;4862949;29;20386;-78
2022/07/28 08:40:31;;;;;;;5.32;1.90;;;;;;;29.79;27.79;99965.38;4863190;29;20479;-77
2022/07/28 08:43:14;;;;;;;6.43;2.08;;;;;;;28.56;28.57;99965.78;4862882;29;20116;-78
2022/07/28 08:45:43;;;;;;;6.20;2.47;;;;;;;27.28;30.25;99975.13;4863161;29;20025;-77
2022/07/28 08:48:10;;;;;;;4.32;1.73;;;;;;;26.72;30.89;99959.00;4863120;29;20029;-77
2022/07/28 08:50:38;;;;;;;3.92;1.90;;;;;;;26.02;32.85;99974.59;4863143;29;20150;-77
2022/07/28 08:53:05;;;;;;;6.05;2.20;;;;;;;25.88;33.51;99974.22;4862800;29;20435;-77
2022/07/28 08:55:31;;;;;;;3.22;1.75;;;;;;;25.73;33.24;99986.47;4862832;29;20112;-77
2022/07/28 08:57:58;;;;;;;7.85;2.50;;;;;;;25.94;32.68;99970.06;4862835;29;20355;-77
2022/07/28 09:00:25;;;;;;;4.43;2.13;;;;;;;26.28;32.98;99977.97;4862980;29;20086;-77
2022/07/28 09:02:51;;;;;;;4.47;1.60;;;;;;;26.25;33.41;99974.78;4862864;29;20460;-77
2022/07/28 09:05:19;;;;;;;4.43;1.60;;;;;;;25.87;33.44;99969.88;4862489;29;20120;-77
2022/07/28 09:07:48;;;;;;;3.38;1.70;;;;;;;26.10;33.74;99977.28;4862714;29;20086;-76
2022/07/28 09:10:14;;;;;;;5.13;2.10;;;;;;;26.11;33.61;99946.91;4862336;29;20033;-76
2022/07/28 09:12:40;;;;;;;3.80;1.70;;;;;;;26.31;35.45;99955.44;4862610;29;20097;-76
2022/07/28 09:15:07;;;;;;;3.25;1.75;;;;;;;26.53;34.89;99964.66;4862420;29;20060;-76
2022/07/28 09:17:33;;;;;;;4.35;1.67;;;;;;;26.66;34.10;99964.16;4862615;29;20044;-77
2022/07/28 09:19:59;;;;;;;2.53;1.70;;;;;;;26.58;32.73;99963.16;4862573;29;20041;-76
2022/07/28 09:22:25;;;;;;;2.78;1.55;;;;;;;26.36;33.09;99964.63;4862191;29;20505;-76
2022/07/28 09:24:51;;;;;;;2.97;1.42;;;;;;;25.69;33.89;99952.28;4862237;29;20041;-76
2022/07/28 09:27:16;;;;;;;5.10;1.90;;;;;;;25.50;33.45;99964.88;4862303;29;20040;-77
2022/07/28 09:29:47;;;;;;;5.45;1.88;;;;;;;25.44;33.56;99970.84;4862423;29;20032;-76
2022/07/28 09:32:14;;;;;;;3.13;1.60;;;;;;;25.41;33.79;99968.50;4862100;29;20037;-77
2022/07/28 09:34:47;;;;;;;4.45;2.42;;;;;;;25.49;34.63;99965.84;4861455;29;20404;-77
2022/07/28 09:37:20;;;;;;;3.30;1.55;;;;;;;25.79;33.47;99961.84;4861886;29;20080;-77
2022/07/28 09:39:47;;;;;;;3.80;1.80;;;;;;;25.91;33.75;99973.03;4862130;29;20392;-77
2022/07/28 09:42:13;;;;;;;2.15;1.48;;;;;;;25.98;33.13;99967.91;4862044;29;20034;-76
2022/07/28 09:44:38;;;;;;;7.40;1.85;;;;;;;25.48;33.70;99966.03;4862171;29;20076;-77
2022/07/28 09:47:26;;;;;;;2.97;1.63;;;;;;;25.66;34.23;99979.25;4861746;29;20029;-77
2022/07/28 09:49:53;;;;;;;2.78;1.77;;;;;;;25.74;34.26;99974.78;4862145;29;20057;-77
2022/07/28 09:52:31;;;;;;;3.72;1.90;;;;;;;25.89;33.77;99964.38;4861888;29;20036;-77
2022/07/28 09:55:08;;;;;;;2.78;1.67;;;;;;;26.02;34.13;99974.59;4862009;29;20479;-76
2022/07/28 09:57:35;;;;;;;4.03;1.63;;;;;;;25.84;32.94;99966.72;4861912;29;20030;-76
2022/07/28 10:00:07;;;;;;;2.42;1.70;;;;;;;25.83;34.17;99957.00;4861511;29;20036;-76
2022/07/28 10:02:33;;;;;;;5.78;2.03;;;;;;;25.92;33.65;99955.22;4861984;29;20030;-76
2022/07/28 10:04:59;;;;;;;3.72;1.90;;;;;;;25.91;33.48;99956.19;4861382;29;20121;-77
2022/07/28 10:07:28;;;;;;;3.17;1.80;;;;;;;25.68;33.55;99954.09;4861788;29;20086;-76
2022/07/28 10:10:06;;;;;;;4.30;1.55;;;;;;;25.76;33.79;99951.47;4861607;29;20482;-76
2022/07/28 10:12:35;;;;;;;2.00;1.52;;;;;;;25.82;33.29;99952.66;4861506;29;20028;-76
2022/07/28 10:17:59;;;;;;;3.90;1.63;;;;;;;25.28;32.81;99952.94;4861359;29;20626;-76
2022/07/28 10:20:26;;;;;;;4.60;1.70;;;;;;;25.29;33.78;99951.13;4861487;29;20062;-76
2022/07/28 10:23:01;;;;;;;3.50;1.60;;;;;;;25.04;33.46;99945.59;4861348;29;20502;-76
2022/07/28 10:25:29;;;;;;;4.07;1.77;;;;;;;25.10;33.67;99938.84;4861316;29;20157;-76
2022/07/28 10:27:58;;;;;;;3.63;1.60;;;;;;;25.25;34.37;99937.25;4861470;29;20041;-76
2022/07/28 10:30:23;;;;;;;2.72;1.60;;;;;;;24.85;33.63;99943.97;4861118;29;20030;-76
2022/07/28 10:32:53;;;;;;;1.60;1.30;;;;;;;24.40;34.46;99933.50;4861353;29;20030;-77
2022/07/28 10:35:19;;;;;;;3.83;1.70;;;;;;;24.35;35.23;99928.56;4860883;29;20033;-77
2022/07/28 10:37:58;;;;;;;2.33;1.50;;;;;;;24.73;35.81;99939.88;4861095;29;20546;-77
2022/07/28 10:40:28;;;;;;;3.78;1.60;;;;;;;25.07;35.83;99937.31;4861064;29;20040;-77
2022/07/28 10:42:55;;;;;;;4.43;1.98;;;;;;;25.32;35.65;99927.59;4861039;29;20033;-77
2022/07/28 10:45:20;;;;;;;2.58;1.77;;;;;;;25.58;35.13;99919.56;4860436;29;20093;-76
2022/07/28 10:47:47;;;;;;;3.50;1.80;;;;;;;25.83;34.06;99930.31;4860933;29;20029;-76
2022/07/28 10:50:14;;;;;;;2.72;1.50;;;;;;;25.85;33.88;99923.00;4860865;29;20072;-76
2022/07/28 10:52:41;;;;;;;1.98;1.38;;;;;;;26.07;32.69;99926.88;4861068;29;20045;-76
2022/07/28 10:55:43;;;;;;;4.28;1.95;;;;;;;26.22;32.49;99927.91;4860747;29;20584;-77
2022/07/28 10:58:37;;;;;;;2.53;1.75;;;;;;;25.94;33.40;99929.19;4860652;29;20036;-76
2022/07/28 11:01:02;;;;;;;3.67;1.60;;;;;;;25.99;31.87;99926.88;4860750;29;20621;-77
2022/07/28 11:03:46;;;;;;;2.58;1.40;;;;;;;25.95;32.47;99920.19;4860744;29;20082;-77
2022/07/28 11:06:30;;;;;;;2.72;1.90;;;;;;;26.07;32.76;99903.69;4860283;29;20037;-77
2022/07/28 11:08:59;;;;;;;2.83;1.70;;;;;;;26.24;32.60;99923.22;4860534;29;20041;-77
2022/07/28 11:11:50;;;;;;;1.83;1.42;;;;;;;26.36;33.37;99916.56;4860529;29;20060;-77
2022/07/28 11:14:34;;;;;;;2.53;1.30;;;;;;;26.44;33.19;99921.09;4860263;29;20030;-77
2022/07/28 11:17:05;;;;;;;3.95;1.60;;;;;;;26.42;33.05;99922.22;4860307;29;20042;-77
2022/07/28 11:19:50;;;;;;;2.80;1.33;;;;;;;25.52;33.43;99917.53;4860685;29;20037;-76
2022/07/28 11:22:18;;;;;;;2.58;1.65;;;;;;;24.96;34.45;99910.91;4860321;29;20386;-76
2022/07/28 11:25:09;;;;;;;3.22;1.73;;;;;;;24.73;34.84;99925.72;4860390;29;20036;-76
2022/07/28 11:27:41;;;;;;;4.60;1.90;;;;;;;24.69;34.64;99919.88;4860289;29;20022;-76
2022/07/28 11:30:09;;;;;;;1.85;1.42;;;;;;;24.87;34.62;99917.19;4860216;29;20069;-76
2022/07/28 11:33:01;;;;;;;2.25;1.38;;;;;;;25.13;35.65;99914.53;4860205;29;20475;-77
2022/07/28 11:35:26;;;;;;;2.25;1.65;;;;;;;25.31;35.11;99904.63;4784892;30;20054;-76
2022/07/28 11:38:00;;;;;;;4.95;1.85;;;;;;;25.03;34.50;99911.09;4784950;30;20039;-76
2022/07/28 11:40:36;;;;;;;6.75;2.08;;;;;;;24.56;35.01;99922.13;4784784;30;20548;-75
2022/07/28 11:43:23;;;;;;;3.15;1.85;;;;;;;24.13;35.76;99913.06;4784966;30;20043;-76
2022/07/28 11:46:00;;;;;;;3.03;1.58;;;;;;;23.94;36.19;99902.59;4784838;30;20079;-77